Time;durP1;ratioP1;P1;durP2;ratioP2;P2;SDS_P1;SDS_P2;PMS_P1;PMS_P2;Temp;Humidity;BMP_temperature;BMP_pressure;BME280_temperature;BME280_humidity;BME280_pressure;Samples;Min_cycle;Max_cycle;Signal;HPM_P1;HPM_P2
2021/04/26 00:00:41;;;;;;;4.20;1.30;;;;;;;;;;5037510;28;20783;-70
2021/04/26 00:03:08;;;;;;;4.63;1.50;;;;;;;;;;5037660;28;20978;-70
2021/04/26 00:05:36;;;;;;;3.07;1.33;;;;;;;;;;5036709;28;20483;-70
2021/04/26 00:08:03;;;;;;;4.63;1.47;;;;;;;;;;5037760;28;20463;-70
2021/04/26 00:10:30;;;;;;;3.73;1.60;;;;;;;;;;5037362;28;20451;-70
2021/04/26 00:12:58;;;;;;;3.50;1.37;;;;;;;;;;5037926;28;20474;-70
2021/04/26 00:15:26;;;;;;;6.47;2.30;;;;;;;;;;5037649;28;20879;-70
2021/04/26 00:17:54;;;;;;;4.30;2.13;;;;;;;;;;5036982;28;20871;-70
2021/04/26 00:20:22;;;;;;;4.03;1.80;;;;;;;;;;5036426;28;20482;-70
2021/04/26 00:22:52;;;;;;;4.97;1.80;;;;;;;;;;5037282;28;20463;-70
2021/04/26 00:25:20;;;;;;;7.07;1.70;;;;;;;;;;5037589;28;20459;-70
2021/04/26 00:27:47;;;;;;;3.77;1.30;;;;;;;;;;5037322;28;20536;-70
2021/04/26 00:30:16;;;;;;;3.80;1.57;;;;;;;;;;5036664;28;20462;-70
2021/04/26 00:32:43;;;;;;;5.47;1.90;;;;;;;;;;5037303;28;20458;-70
2021/04/26 00:35:13;;;;;;;4.23;1.53;;;;;;;;;;5037119;28;20463;-70
2021/04/26 00:37:40;;;;;;;4.30;1.60;;;;;;;;;;5036882;28;20467;-70
2021/04/26 00:40:08;;;;;;;3.70;1.50;;;;;;;;;;5037652;28;20751;-70
2021/04/26 00:42:35;;;;;;;4.20;1.87;;;;;;;;;;5037394;28;20459;-70
2021/04/26 00:45:07;;;;;;;3.50;2.03;;;;;;;;;;5037745;28;20459;-70
2021/04/26 00:47:35;;;;;;;3.60;1.73;;;;;;;;;;5036800;28;20869;-71
2021/04/26 00:50:02;;;;;;;3.70;1.40;;;;;;;;;;5038038;28;20459;-70
2021/04/26 00:52:30;;;;;;;3.80;1.83;;;;;;;;;;5037386;28;20493;-70
2021/04/26 00:54:58;;;;;;;3.77;1.63;;;;;;;;;;5037260;28;20454;-70
2021/04/26 00:57:26;;;;;;;3.80;1.93;;;;;;;;;;5037277;28;20462;-70
2021/04/26 00:59:53;;;;;;;5.67;2.10;;;;;;;;;;5037342;28;20486;-70
2021/04/26 01:02:21;;;;;;;4.83;2.00;;;;;;;;;;5037243;28;20467;-70
2021/04/26 01:04:48;;;;;;;4.03;1.80;;;;;;;;;;5037447;28;20787;-71
2021/04/26 01:07:15;;;;;;;4.97;1.90;;;;;;;;;;5036774;28;20463;-69
2021/04/26 01:09:43;;;;;;;3.87;1.87;;;;;;;;;;5036872;28;20521;-69
2021/04/26 01:12:14;;;;;;;6.70;1.70;;;;;;;;;;5036870;28;20857;-71
2021/04/26 01:14:43;;;;;;;5.10;1.87;;;;;;;;;;5036123;28;20524;-70
2021/04/26 01:17:12;;;;;;;5.13;2.40;;;;;;;;;;5036579;28;20504;-70
2021/04/26 01:19:57;;;;;;;4.47;2.07;;;;;;;;;;5037485;28;20486;-71
2021/04/26 01:22:34;;;;;;;5.93;2.07;;;;;;;;;;5026427;28;20462;-70
2021/04/26 01:25:05;;;;;;;5.27;1.80;;;;;;;;;;5036594;28;20458;-70
2021/04/26 01:27:50;;;;;;;3.50;1.73;;;;;;;;;;5035933;28;20467;-70
2021/04/26 01:30:19;;;;;;;3.13;1.50;;;;;;;;;;5037830;28;20459;-70
2021/04/26 01:32:52;;;;;;;4.63;1.43;;;;;;;;;;5041082;28;20463;-70
2021/04/26 01:35:20;;;;;;;3.93;1.80;;;;;;;;;;5040428;28;20447;-70
2021/04/26 01:37:49;;;;;;;3.53;1.47;;;;;;;;;;5040468;28;20455;-70
2021/04/26 01:40:17;;;;;;;3.43;1.40;;;;;;;;;;5039924;28;20479;-70
2021/04/26 01:42:47;;;;;;;6.00;1.53;;;;;;;;;;5040784;28;20477;-70
2021/04/26 01:45:16;;;;;;;3.93;1.20;;;;;;;;;;5039750;28;20762;-70
2021/04/26 01:47:45;;;;;;;3.20;1.20;;;;;;;;;;5040268;28;20486;-70
2021/04/26 01:50:14;;;;;;;3.73;0.80;;;;;;;;;;5039371;28;20467;-70
2021/04/26 01:52:42;;;;;;;3.77;1.63;;;;;;;;;;5036316;28;20746;-69
2021/04/26 01:55:11;;;;;;;4.40;1.67;;;;;;;;;;5040376;28;20470;-70
2021/04/26 01:57:38;;;;;;;4.27;1.77;;;;;;;;;;5039910;28;20463;-70
2021/04/26 02:00:09;;;;;;;6.23;1.50;;;;;;;;;;5039606;28;20475;-70
2021/04/26 02:02:36;;;;;;;4.10;1.50;;;;;;;;;;5039922;28;20463;-70
2021/04/26 02:05:04;;;;;;;4.20;2.10;;;;;;;;;;5039478;28;20474;-70
2021/04/26 02:07:33;;;;;;;2.93;1.20;;;;;;;;;;5040392;28;21101;-70
2021/04/26 02:10:00;;;;;;;4.20;1.53;;;;;;;;;;5039347;28;20846;-69
2021/04/26 02:12:27;;;;;;;4.80;1.63;;;;;;;;;;5039522;28;20462;-69
2021/04/26 02:14:55;;;;;;;3.43;1.30;;;;;;;;;;5039977;28;20550;-69
2021/04/26 02:17:23;;;;;;;7.00;2.60;;;;;;;;;;5039627;28;20466;-69
2021/04/26 02:20:18;;;;;;;9.73;3.73;;;;;;;;;;5039248;28;20478;-70
2021/04/26 02:22:48;;;;;;;5.70;1.93;;;;;;;;;;5039864;28;20463;-70
2021/04/26 02:25:19;;;;;;;4.27;1.97;;;;;;;;;;5039822;28;20481;-70
2021/04/26 02:27:47;;;;;;;4.83;1.53;;;;;;;;;;5040094;28;20467;-70
2021/04/26 02:30:15;;;;;;;3.50;1.30;;;;;;;;;;5039147;28;20535;-70
2021/04/26 02:32:47;;;;;;;2.60;0.90;;;;;;;;;;5039899;28;20489;-70
2021/04/26 02:35:17;;;;;;;3.93;1.50;;;;;;;;;;5032210;28;20521;-71
2021/04/26 02:37:46;;;;;;;4.33;1.63;;;;;;;;;;5019769;28;20471;-70
2021/04/26 02:40:15;;;;;;;3.30;1.20;;;;;;;;;;5021627;28;20482;-70
2021/04/26 02:42:44;;;;;;;4.20;1.47;;;;;;;;;;5038612;28;20933;-70
2021/04/26 02:45:14;;;;;;;4.43;1.30;;;;;;;;;;5039512;28;20462;-70
2021/04/26 02:47:43;;;;;;;4.07;1.50;;;;;;;;;;5038898;28;20754;-70
2021/04/26 02:50:11;;;;;;;3.63;1.60;;;;;;;;;;5038042;28;20459;-70
2021/04/26 02:52:49;;;;;;;2.40;1.07;;;;;;;;;;5038326;28;20914;-70
2021/04/26 02:55:21;;;;;;;3.30;1.30;;;;;;;;;;5038883;28;20681;-70
2021/04/26 02:57:49;;;;;;;3.10;1.23;;;;;;;;;;5039853;28;20462;-72
2021/04/26 03:00:17;;;;;;;3.57;1.90;;;;;;;;;;5038592;28;20809;-70
2021/04/26 03:02:46;;;;;;;3.80;1.77;;;;;;;;;;5038562;28;20466;-70
2021/04/26 03:05:15;;;;;;;3.60;1.43;;;;;;;;;;5035256;28;20875;-71
2021/04/26 03:07:47;;;;;;;3.47;1.27;;;;;;;;;;5041039;28;20466;-71
2021/04/26 03:10:16;;;;;;;2.80;1.00;;;;;;;;;;5038984;28;20464;-70
2021/04/26 03:12:49;;;;;;;4.10;1.20;;;;;;;;;;5038455;28;20528;-70
2021/04/26 03:15:18;;;;;;;2.93;1.67;;;;;;;;;;5037717;28;20616;-71
2021/04/26 03:17:46;;;;;;;2.60;1.10;;;;;;;;;;5038566;28;20454;-70
2021/04/26 03:20:15;;;;;;;16.13;1.63;;;;;;;;;;5037980;28;20482;-70
2021/04/26 03:22:42;;;;;;;3.10;1.10;;;;;;;;;;5037501;28;20459;-70
2021/04/26 03:25:11;;;;;;;5.37;1.43;;;;;;;;;;5038627;28;20467;-70
2021/04/26 03:27:39;;;;;;;3.27;1.33;;;;;;;;;;5037420;28;20462;-70
2021/04/26 03:30:08;;;;;;;3.17;1.37;;;;;;;;;;5027253;28;20482;-70
2021/04/26 03:32:36;;;;;;;5.90;1.63;;;;;;;;;;5037998;28;20447;-70
2021/04/26 03:35:03;;;;;;;4.90;1.80;;;;;;;;;;5038349;28;20467;-70
2021/04/26 03:37:31;;;;;;;3.17;1.37;;;;;;;;;;5038407;28;20459;-70
2021/04/26 03:39:58;;;;;;;4.23;2.00;;;;;;;;;;5037015;28;20560;-70
2021/04/26 03:42:25;;;;;;;4.10;1.67;;;;;;;;;;5038291;28;20458;-70
2021/04/26 03:44:53;;;;;;;2.47;1.03;;;;;;;;;;5038462;28;20765;-70
2021/04/26 03:47:21;;;;;;;5.00;1.97;;;;;;;;;;5037729;28;20878;-70
2021/04/26 03:49:48;;;;;;;2.87;1.20;;;;;;;;;;5038077;28;20489;-70
2021/04/26 03:52:16;;;;;;;7.80;1.60;;;;;;;;;;5037388;28;20455;-69
2021/04/26 03:54:43;;;;;;;4.17;1.10;;;;;;;;;;5036784;28;20883;-70
2021/04/26 03:57:10;;;;;;;2.80;1.07;;;;;;;;;;5038101;28;20451;-70
2021/04/26 03:59:38;;;;;;;3.20;1.37;;;;;;;;;;5037862;28;20926;-70
2021/04/26 04:02:05;;;;;;;2.50;1.00;;;;;;;;;;5037877;28;20451;-70
2021/04/26 04:04:33;;;;;;;6.23;2.57;;;;;;;;;;5037728;28;20462;-70
2021/04/26 04:07:00;;;;;;;3.67;1.00;;;;;;;;;;5038023;28;20814;-70
2021/04/26 04:09:28;;;;;;;3.87;1.40;;;;;;;;;;5038077;28;20482;-70
2021/04/26 04:11:55;;;;;;;5.10;1.37;;;;;;;;;;5037154;28;20851;-70
2021/04/26 04:14:25;;;;;;;3.90;1.00;;;;;;;;;;5037033;28;20737;-70
2021/04/26 04:16:52;;;;;;;4.60;1.60;;;;;;;;;;5036698;28;20516;-70
2021/04/26 04:19:19;;;;;;;2.70;1.17;;;;;;;;;;5036580;28;20495;-70
2021/04/26 04:21:48;;;;;;;3.00;1.30;;;;;;;;;;5037040;28;20459;-70
2021/04/26 04:24:18;;;;;;;2.67;1.00;;;;;;;;;;5037138;28;20761;-70
2021/04/26 04:26:45;;;;;;;3.70;1.70;;;;;;;;;;5037503;28;20457;-70
2021/04/26 04:29:12;;;;;;;3.27;1.53;;;;;;;;;;5036094;28;20481;-70
2021/04/26 04:31:40;;;;;;;3.00;1.53;;;;;;;;;;5036214;28;20921;-70
2021/04/26 04:34:07;;;;;;;4.83;4.00;;;;;;;;;;5037121;28;20458;-70
2021/04/26 04:36:35;;;;;;;3.27;1.50;;;;;;;;;;5037160;28;20459;-71
2021/04/26 04:39:04;;;;;;;6.27;2.50;;;;;;;;;;5035445;28;20459;-70
2021/04/26 04:41:31;;;;;;;5.53;1.40;;;;;;;;;;5036423;28;20876;-70
2021/04/26 04:44:00;;;;;;;2.40;1.00;;;;;;;;;;5036410;28;20463;-70
2021/04/26 04:46:27;;;;;;;2.80;1.10;;;;;;;;;;5036670;28;20479;-71
2021/04/26 04:48:55;;;;;;;3.80;1.40;;;;;;;;;;5036007;28;20458;-70
2021/04/26 04:51:22;;;;;;;2.40;0.93;;;;;;;;;;5036385;28;20450;-70
2021/04/26 04:53:50;;;;;;;5.37;1.80;;;;;;;;;;5035875;28;20461;-70
2021/04/26 04:56:18;;;;;;;3.03;1.20;;;;;;;;;;5035700;28;20904;-70
2021/04/26 04:58:45;;;;;;;3.33;1.30;;;;;;;;;;5034707;28;20462;-70
2021/04/26 05:01:13;;;;;;;6.83;1.43;;;;;;;;;;5034623;28;20487;-70
2021/04/26 05:03:52;;;;;;;4.10;1.13;;;;;;;;;;5035416;28;20531;-70
2021/04/26 05:06:23;;;;;;;2.63;1.07;;;;;;;;;;5040668;28;20447;-70
2021/04/26 05:08:51;;;;;;;2.83;1.07;;;;;;;;;;5042522;28;20465;-70
2021/04/26 05:11:19;;;;;;;3.20;1.23;;;;;;;;;;5042498;28;20455;-70
2021/04/26 05:13:46;;;;;;;5.10;1.10;;;;;;;;;;5042038;28;20877;-70
2021/04/26 05:16:14;;;;;;;2.93;1.10;;;;;;;;;;5041414;28;20480;-70
2021/04/26 05:18:41;;;;;;;2.67;1.10;;;;;;;;;;5041721;28;20465;-70
2021/04/26 05:21:10;;;;;;;2.67;1.13;;;;;;;;;;5040325;28;20502;-70
2021/04/26 05:23:38;;;;;;;6.20;1.10;;;;;;;;;;5020951;28;20447;-70
2021/04/26 05:26:05;;;;;;;4.93;1.50;;;;;;;;;;5021785;28;20471;-70
2021/04/26 05:28:33;;;;;;;4.70;2.40;;;;;;;;;;5022067;28;20452;-70
2021/04/26 05:31:00;;;;;;;3.60;1.30;;;;;;;;;;5021947;28;20474;-70
2021/04/26 05:33:28;;;;;;;5.37;1.47;;;;;;;;;;5020807;28;20740;-70
2021/04/26 05:35:55;;;;;;;3.87;1.60;;;;;;;;;;5020808;28;20856;-69
2021/04/26 05:38:23;;;;;;;2.53;1.10;;;;;;;;;;5020882;28;20470;-69
2021/04/26 05:40:50;;;;;;;4.50;1.40;;;;;;;;;;5020863;28;20491;-70
2021/04/26 05:43:18;;;;;;;4.77;1.60;;;;;;;;;;5021368;28;20465;-70
2021/04/26 05:45:47;;;;;;;2.93;1.33;;;;;;;;;;5020900;28;20762;-70
2021/04/26 05:48:16;;;;;;;4.97;1.20;;;;;;;;;;5020620;28;20705;-71
2021/04/26 05:50:46;;;;;;;4.73;1.80;;;;;;;;;;5022027;28;20586;-70
2021/04/26 05:53:14;;;;;;;4.27;1.47;;;;;;;;;;5021425;28;20459;-70
2021/04/26 05:55:41;;;;;;;3.83;1.27;;;;;;;;;;5021816;28;20463;-70
2021/04/26 05:58:09;;;;;;;3.33;1.73;;;;;;;;;;5021502;28;20538;-70
2021/04/26 06:00:36;;;;;;;3.27;1.13;;;;;;;;;;5021556;28;20487;-70
2021/04/26 06:03:06;;;;;;;8.10;1.60;;;;;;;;;;5030329;28;20501;-70
2021/04/26 06:05:33;;;;;;;3.60;1.20;;;;;;;;;;5042181;28;20470;-70
2021/04/26 06:08:02;;;;;;;6.77;1.60;;;;;;;;;;5042623;28;20446;-70
2021/04/26 06:10:30;;;;;;;3.40;1.23;;;;;;;;;;5042963;28;20501;-70
2021/04/26 06:12:58;;;;;;;4.53;1.10;;;;;;;;;;5042762;28;20498;-69
2021/04/26 06:15:26;;;;;;;5.73;1.93;;;;;;;;;;5040706;28;20684;-71
2021/04/26 06:18:11;;;;;;;3.93;1.43;;;;;;;;;;5039648;28;20474;-70
2021/04/26 06:20:40;;;;;;;2.70;1.03;;;;;;;;;;5039454;28;20502;-70
2021/04/26 06:23:08;;;;;;;4.63;1.33;;;;;;;;;;5038852;28;20450;-70
2021/04/26 06:25:37;;;;;;;4.60;2.00;;;;;;;;;;5039805;28;20461;-70
2021/04/26 06:28:07;;;;;;;8.17;1.60;;;;;;;;;;5040965;28;20489;-70
2021/04/26 06:30:35;;;;;;;6.47;1.60;;;;;;;;;;5038626;28;20459;-70
2021/04/26 06:33:03;;;;;;;9.77;1.80;;;;;;;;;;5038614;28;20463;-70
2021/04/26 06:35:32;;;;;;;5.73;1.70;;;;;;;;;;5038125;28;20451;-69
2021/04/26 06:38:00;;;;;;;4.20;1.40;;;;;;;;;;5037974;28;20544;-70
2021/04/26 06:40:28;;;;;;;6.03;1.27;;;;;;;;;;5037389;28;20544;-69
2021/04/26 06:42:56;;;;;;;5.53;3.33;;;;;;;;;;5037651;28;20462;-70
2021/04/26 06:45:24;;;;;;;4.70;1.40;;;;;;;;;;5038651;28;20461;-70
2021/04/26 06:47:51;;;;;;;3.27;1.50;;;;;;;;;;5038431;28;20529;-70
2021/04/26 06:50:19;;;;;;;3.17;1.33;;;;;;;;;;5037749;28;20739;-70
2021/04/26 06:52:46;;;;;;;2.63;0.90;;;;;;;;;;5037084;28;20690;-70
2021/04/26 06:55:15;;;;;;;2.50;0.83;;;;;;;;;;5036563;28;20451;-69
2021/04/26 06:57:42;;;;;;;3.03;1.00;;;;;;;;;;5037494;28;20463;-69
2021/04/26 07:00:11;;;;;;;3.30;0.97;;;;;;;;;;5037339;28;20486;-69
2021/04/26 07:02:38;;;;;;;4.80;1.20;;;;;;;;;;5037679;28;20775;-69
2021/04/26 07:05:06;;;;;;;5.23;1.70;;;;;;;;;;5037298;28;20455;-70
2021/04/26 07:07:34;;;;;;;3.07;1.07;;;;;;;;;;5036480;28;20744;-69
2021/04/26 07:10:04;;;;;;;2.57;0.87;;;;;;;;;;5038056;28;20505;-68
2021/04/26 07:12:43;;;;;;;3.30;1.03;;;;;;;;;;5037626;28;20459;-69
2021/04/26 07:15:11;;;;;;;2.90;0.97;;;;;;;;;;5036643;28;20486;-69
2021/04/26 07:17:39;;;;;;;4.20;1.40;;;;;;;;;;5036552;28;20468;-69
2021/04/26 07:20:07;;;;;;;2.70;0.87;;;;;;;;;;5037933;28;20751;-70
2021/04/26 07:22:35;;;;;;;4.03;1.10;;;;;;;;;;5037614;28;20478;-69
2021/04/26 07:25:02;;;;;;;4.50;2.10;;;;;;;;;;5037771;28;20455;-69
2021/04/26 07:27:30;;;;;;;8.87;3.10;;;;;;;;;;5036319;28;20470;-69
2021/04/26 07:29:59;;;;;;;4.10;1.20;;;;;;;;;;5036282;28;20549;-69
2021/04/26 07:32:30;;;;;;;6.23;1.50;;;;;;;;;;5035947;28;20957;-69
2021/04/26 07:34:58;;;;;;;2.40;0.73;;;;;;;;;;5036683;28;20463;-70
2021/04/26 07:37:26;;;;;;;2.10;0.50;;;;;;;;;;5036541;28;20462;-69
2021/04/26 07:39:55;;;;;;;3.80;1.10;;;;;;;;;;5037410;28;20493;-70
2021/04/26 07:42:22;;;;;;;2.20;0.60;;;;;;;;;;5036653;28;20477;-69
2021/04/26 07:44:49;;;;;;;2.97;0.90;;;;;;;;;;5030724;28;20481;-70
2021/04/26 07:47:23;;;;;;;4.13;1.10;;;;;;;;;;5016771;28;20468;-70
2021/04/26 07:49:51;;;;;;;2.73;0.70;;;;;;;;;;5017192;28;20463;-70
2021/04/26 07:52:18;;;;;;;2.83;0.70;;;;;;;;;;5015854;28;20602;-70
2021/04/26 07:54:45;;;;;;;2.83;0.80;;;;;;;;;;5016660;28;20559;-70
2021/04/26 07:57:12;;;;;;;2.60;0.70;;;;;;;;;;5017031;28;20464;-69
2021/04/26 07:59:40;;;;;;;3.27;0.90;;;;;;;;;;5018354;28;20602;-70
2021/04/26 08:02:09;;;;;;;6.90;0.87;;;;;;;;;;5035651;28;20467;-68
2021/04/26 08:04:41;;;;;;;4.30;0.73;;;;;;;;;;5036499;28;20451;-69
2021/04/26 08:07:12;;;;;;;3.73;1.30;;;;;;;;;;5035980;28;20455;-70
2021/04/26 08:09:43;;;;;;;4.20;1.60;;;;;;;;;;5034589;28;20469;-70
2021/04/26 08:12:13;;;;;;;4.10;0.70;;;;;;;;;;5034491;28;20470;-71
2021/04/26 08:14:42;;;;;;;4.67;0.90;;;;;;;;;;5036327;28;20461;-70
2021/04/26 08:17:10;;;;;;;4.13;0.77;;;;;;;;;;5036039;28;20462;-69
2021/04/26 08:19:38;;;;;;;2.87;1.27;;;;;;;;;;5037330;28;20479;-68
2021/04/26 08:22:09;;;;;;;2.30;0.80;;;;;;;;;;5036587;28;20463;-71
2021/04/26 08:24:36;;;;;;;2.90;0.93;;;;;;;;;;5035904;28;20451;-69
2021/04/26 08:27:04;;;;;;;3.57;1.00;;;;;;;;;;5036204;28;20477;-69
2021/04/26 08:29:31;;;;;;;5.63;0.87;;;;;;;;;;5036559;28;20462;-69
2021/04/26 08:32:02;;;;;;;2.07;0.63;;;;;;;;;;5023856;28;20480;-69
2021/04/26 08:34:29;;;;;;;2.50;0.90;;;;;;;;;;5019321;28;20506;-69
2021/04/26 08:36:58;;;;;;;5.83;2.40;;;;;;;;;;5031747;28;20478;-70
2021/04/26 08:39:26;;;;;;;2.20;0.70;;;;;;;;;;5030003;28;20643;-69
2021/04/26 08:41:53;;;;;;;3.10;0.70;;;;;;;;;;5034975;28;20459;-70
2021/04/26 08:44:21;;;;;;;2.30;0.60;;;;;;;;;;5035586;28;20864;-73
2021/04/26 08:46:49;;;;;;;2.53;0.70;;;;;;;;;;5035523;28;20518;-69
2021/04/26 08:49:20;;;;;;;2.30;0.63;;;;;;;;;;5035948;28;21022;-69
2021/04/26 08:51:48;;;;;;;2.60;0.80;;;;;;;;;;5036259;28;20563;-69
2021/04/26 08:54:21;;;;;;;2.50;0.80;;;;;;;;;;5034195;28;20749;-71
2021/04/26 08:56:52;;;;;;;4.40;0.80;;;;;;;;;;5035994;28;20499;-70
2021/04/26 08:59:20;;;;;;;2.43;0.63;;;;;;;;;;5033644;28;20609;-70
2021/04/26 09:01:50;;;;;;;2.40;0.67;;;;;;;;;;5033353;28;20747;-70
2021/04/26 09:04:28;;;;;;;4.87;0.83;;;;;;;;;;5029867;28;20658;-71
2021/04/26 09:07:02;;;;;;;2.83;0.77;;;;;;;;;;5035131;28;20489;-70
2021/04/26 09:09:36;;;;;;;2.80;0.90;;;;;;;;;;5034814;28;20455;-70
2021/04/26 09:12:04;;;;;;;5.20;1.07;;;;;;;;;;5016450;28;20464;-70
2021/04/26 09:14:38;;;;;;;2.90;0.90;;;;;;;;;;5033931;28;20455;-70
2021/04/26 09:17:24;;;;;;;3.10;1.43;;;;;;;;;;5036188;28;20476;-69
2021/04/26 09:19:51;;;;;;;2.87;0.83;;;;;;;;;;5037607;28;20482;-69
2021/04/26 09:22:38;;;;;;;2.53;0.80;;;;;;;;;;5037883;28;20489;-70
2021/04/26 09:25:24;;;;;;;4.63;0.80;;;;;;;;;;5033539;28;20478;-69
2021/04/26 09:27:52;;;;;;;3.50;0.70;;;;;;;;;;5027131;28;20524;-69
2021/04/26 09:30:34;;;;;;;3.33;1.17;;;;;;;;;;5036574;28;20454;-70
2021/04/26 09:33:15;;;;;;;3.03;0.90;;;;;;;;;;5027528;28;20462;-69
2021/04/26 09:35:43;;;;;;;4.93;0.90;;;;;;;;;;5036644;28;20478;-69
2021/04/26 09:38:24;;;;;;;2.50;0.90;;;;;;;;;;5035847;28;20451;-69
2021/04/26 09:41:12;;;;;;;4.30;1.20;;;;;;;;;;5015390;28;20495;-69
2021/04/26 09:43:40;;;;;;;3.87;1.50;;;;;;;;;;5034705;28;20455;-69
2021/04/26 09:46:11;;;;;;;3.13;1.33;;;;;;;;;;5035010;28;20754;-70
2021/04/26 09:48:39;;;;;;;2.37;0.97;;;;;;;;;;5035616;28;20447;-69
2021/04/26 09:51:09;;;;;;;2.97;0.93;;;;;;;;;;5035168;28;20478;-70
2021/04/26 09:53:49;;;;;;;3.20;0.83;;;;;;;;;;5038728;28;20454;-70
2021/04/26 09:56:18;;;;;;;5.53;1.30;;;;;;;;;;5019397;28;20459;-69
2021/04/26 09:58:48;;;;;;;6.77;1.20;;;;;;;;;;5019250;28;20451;-69
2021/04/26 10:01:16;;;;;;;3.13;1.00;;;;;;;;;;5019075;28;20491;-69
2021/04/26 10:03:43;;;;;;;5.27;0.90;;;;;;;;;;5020060;28;20489;-69
2021/04/26 10:06:13;;;;;;;2.97;0.90;;;;;;;;;;5029642;28;20604;-69
2021/04/26 10:08:44;;;;;;;2.93;1.10;;;;;;;;;;5038199;28;20545;-69
2021/04/26 10:11:12;;;;;;;5.23;0.90;;;;;;;;;;5039549;28;20466;-69
2021/04/26 10:13:41;;;;;;;3.20;1.33;;;;;;;;;;5038980;28;20466;-69
2021/04/26 10:16:10;;;;;;;4.47;1.33;;;;;;;;;;5038512;28;20616;-70
2021/04/26 10:18:39;;;;;;;4.57;1.13;;;;;;;;;;5038931;28;20516;-70
2021/04/26 10:21:29;;;;;;;5.37;2.50;;;;;;;;;;5039748;28;20495;-72
2021/04/26 10:23:56;;;;;;;2.97;1.20;;;;;;;;;;5037827;28;20566;-70
2021/04/26 10:26:43;;;;;;;5.53;2.37;;;;;;;;;;5030537;28;20470;-68
2021/04/26 10:29:15;;;;;;;3.50;1.20;;;;;;;;;;5038293;28;20737;-70
2021/04/26 10:32:04;;;;;;;3.27;1.60;;;;;;;;;;5032594;28;20473;-69
2021/04/26 10:34:38;;;;;;;3.67;1.40;;;;;;;;;;5038635;28;20454;-69
2021/04/26 10:37:06;;;;;;;6.53;1.50;;;;;;;;;;5022657;28;21253;-69
2021/04/26 10:39:34;;;;;;;3.37;1.90;;;;;;;;;;5035215;28;20469;-69
2021/04/26 10:42:07;;;;;;;2.90;0.97;;;;;;;;;;5038649;28;20544;-69
2021/04/26 10:44:52;;;;;;;2.80;1.00;;;;;;;;;;5037872;28;20553;-70
2021/04/26 10:47:22;;;;;;;4.97;1.20;;;;;;;;;;5037925;28;20458;-70
2021/04/26 10:49:51;;;;;;;3.50;1.50;;;;;;;;;;5039249;28;20953;-70
2021/04/26 10:52:42;;;;;;;3.50;1.60;;;;;;;;;;5030666;28;20757;-70
2021/04/26 10:55:13;;;;;;;6.10;1.43;;;;;;;;;;5000590;28;20475;-70
2021/04/26 10:57:42;;;;;;;3.40;1.33;;;;;;;;;;5017751;28;20892;-69
2021/04/26 11:00:29;;;;;;;3.30;1.27;;;;;;;;;;5018870;28;20491;-69
2021/04/26 11:03:01;;;;;;;3.00;1.40;;;;;;;;;;5019130;28;20468;-69
2021/04/26 11:05:37;;;;;;;3.63;1.20;;;;;;;;;;5018013;28;20472;-70
2021/04/26 11:11:24;;;;;;;3.00;1.10;;;;;;;;;;5027026;28;20549;-70
2021/04/26 11:13:56;;;;;;;3.10;1.30;;;;;;;;;;5035227;28;20462;-70
2021/04/26 11:16:29;;;;;;;2.60;0.90;;;;;;;;;;5039153;28;20847;-69
2021/04/26 11:19:13;;;;;;;5.10;1.40;;;;;;;;;;5037229;28;20478;-70
2021/04/26 11:22:08;;;;;;;4.13;1.47;;;;;;;;;;5038257;28;20502;-70
2021/04/26 11:25:08;;;;;;;3.53;1.30;;;;;;;;;;5024212;28;20737;-69
2021/04/26 11:27:38;;;;;;;4.03;1.30;;;;;;;;;;5028804;28;20469;-71
2021/04/26 11:30:19;;;;;;;4.50;1.37;;;;;;;;;;5037197;28;20502;-70
2021/04/26 11:33:05;;;;;;;3.90;1.27;;;;;;;;;;5037504;28;20491;-69
2021/04/26 11:35:35;;;;;;;4.03;1.90;;;;;;;;;;5036565;28;20458;-69
2021/04/26 11:38:03;;;;;;;3.90;1.43;;;;;;;;;;5036381;28;20458;-70
2021/04/26 11:40:31;;;;;;;7.90;3.77;;;;;;;;;;5021554;28;20483;-70
2021/04/26 11:43:11;;;;;;;3.13;1.43;;;;;;;;;;5017044;28;20495;-70
2021/04/26 11:45:39;;;;;;;6.60;1.40;;;;;;;;;;5029024;28;20524;-70
2021/04/26 11:48:21;;;;;;;4.33;1.67;;;;;;;;;;5033119;28;20509;-71
2021/04/26 11:50:49;;;;;;;5.00;1.60;;;;;;;;;;5037351;28;20562;-70
2021/04/26 11:53:30;;;;;;;3.00;1.30;;;;;;;;;;5037571;28;20458;-70
2021/04/26 11:56:11;;;;;;;5.77;1.77;;;;;;;;;;5035664;28;20474;-70
2021/04/26 11:58:39;;;;;;;4.97;1.47;;;;;;;;;;5036913;28;20462;-70
2021/04/26 12:01:11;;;;;;;8.50;1.33;;;;;;;;;;5031173;28;20748;-70
2021/04/26 12:03:57;;;;;;;3.93;1.17;;;;;;;;;;5028706;28;20442;-71
2021/04/26 12:06:25;;;;;;;4.70;1.70;;;;;;;;;;5036349;28;20481;-70
2021/04/26 12:08:54;;;;;;;4.70;1.17;;;;;;;;;;5035544;28;20769;-71
2021/04/26 12:11:22;;;;;;;3.13;1.33;;;;;;;;;;5036678;28;20463;-70
2021/04/26 12:14:04;;;;;;;4.80;0.93;;;;;;;;;;5035829;28;20470;-70
2021/04/26 12:16:31;;;;;;;3.20;1.20;;;;;;;;;;5033347;28;20470;-70
2021/04/26 12:19:01;;;;;;;3.73;1.20;;;;;;;;;;5035938;28;20457;-70
2021/04/26 12:21:29;;;;;;;3.50;1.40;;;;;;;;;;5036462;28;20946;-70
2021/04/26 12:23:57;;;;;;;5.03;1.27;;;;;;;;;;5035844;28;20529;-70
2021/04/26 12:26:25;;;;;;;2.83;1.00;;;;;;;;;;5034567;28;20540;-73
2021/04/26 12:28:53;;;;;;;4.00;1.53;;;;;;;;;;5017209;28;20470;-71
2021/04/26 12:31:21;;;;;;;4.47;1.23;;;;;;;;;;5017538;28;20545;-71
2021/04/26 12:33:49;;;;;;;3.10;1.17;;;;;;;;;;5016743;28;20459;-70
2021/04/26 12:36:17;;;;;;;5.77;1.20;;;;;;;;;;5015960;28;20721;-70
2021/04/26 12:38:54;;;;;;;2.60;0.97;;;;;;;;;;5016391;28;20865;-70
2021/04/26 12:41:22;;;;;;;4.37;1.20;;;;;;;;;;5028989;28;20482;-70
2021/04/26 12:43:55;;;;;;;3.03;1.43;;;;;;;;;;5036420;28;20459;-71
2021/04/26 12:46:23;;;;;;;5.60;1.27;;;;;;;;;;5036778;28;20523;-70
2021/04/26 12:48:53;;;;;;;3.33;1.30;;;;;;;;;;5036666;28;20458;-70
2021/04/26 12:51:30;;;;;;;3.37;1.20;;;;;;;;;;5035608;28;20502;-70
2021/04/26 12:54:09;;;;;;;3.10;1.10;;;;;;;;;;5035643;28;20883;-70
2021/04/26 12:56:37;;;;;;;2.70;1.00;;;;;;;;;;5033488;28;20521;-70
2021/04/26 12:59:04;;;;;;;4.13;1.50;;;;;;;;;;5034786;28;20479;-69
2021/04/26 13:01:32;;;;;;;2.50;1.03;;;;;;;;;;5035300;28;20490;-69
2021/04/26 13:04:00;;;;;;;2.47;0.90;;;;;;;;;;5035955;28;20455;-70
2021/04/26 13:06:29;;;;;;;5.00;1.13;;;;;;;;;;5034588;28;20455;-70
2021/04/26 13:08:59;;;;;;;2.80;1.10;;;;;;;;;;5036494;28;20458;-71
2021/04/26 13:11:31;;;;;;;3.90;1.73;;;;;;;;;;5035039;28;20510;-70
2021/04/26 13:14:00;;;;;;;3.33;1.10;;;;;;;;;;5036434;28;20875;-68
2021/04/26 13:16:35;;;;;;;2.87;1.17;;;;;;;;;;5035082;28;20493;-70
2021/04/26 13:19:19;;;;;;;3.80;1.43;;;;;;;;;;5035566;28;20454;-70
2021/04/26 13:21:49;;;;;;;2.50;1.03;;;;;;;;;;5034812;28;20611;-70
2021/04/26 13:24:21;;;;;;;5.43;1.87;;;;;;;;;;5034899;28;20459;-71
2021/04/26 13:26:59;;;;;;;2.93;1.30;;;;;;;;;;5032968;28;20469;-70
2021/04/26 13:29:27;;;;;;;3.90;2.07;;;;;;;;;;5027544;28;20467;-69
2021/04/26 13:31:55;;;;;;;5.07;1.30;;;;;;;;;;5025604;28;20446;-70
2021/04/26 13:34:24;;;;;;;3.50;1.30;;;;;;;;;;5037166;28;20934;-70
2021/04/26 13:36:53;;;;;;;3.90;1.60;;;;;;;;;;5037258;28;20462;-69
2021/04/26 13:39:20;;;;;;;3.47;1.43;;;;;;;;;;5020692;28;21113;-69
2021/04/26 13:41:49;;;;;;;2.77;1.10;;;;;;;;;;5019964;28;20495;-72
2021/04/26 13:44:18;;;;;;;2.73;1.27;;;;;;;;;;5032960;28;20455;-71
2021/04/26 13:46:48;;;;;;;4.50;2.10;;;;;;;;;;5038915;28;20521;-71
2021/04/26 13:49:16;;;;;;;5.07;1.10;;;;;;;;;;5038457;28;20442;-70
2021/04/26 13:51:44;;;;;;;2.13;1.00;;;;;;;;;;5038724;28;20801;-70
2021/04/26 13:54:12;;;;;;;3.40;1.73;;;;;;;;;;5038401;28;20493;-70
2021/04/26 13:56:40;;;;;;;3.50;0.90;;;;;;;;;;5039123;28;20454;-70
2021/04/26 13:59:08;;;;;;;4.87;1.40;;;;;;;;;;5038542;28;20554;-70
2021/04/26 14:01:36;;;;;;;2.67;1.20;;;;;;;;;;5027471;28;20570;-70
2021/04/26 14:04:06;;;;;;;3.30;1.20;;;;;;;;;;5018930;28;20662;-70
2021/04/26 14:06:36;;;;;;;2.53;1.20;;;;;;;;;;5021937;28;20494;-71
2021/04/26 14:09:07;;;;;;;4.43;1.30;;;;;;;;;;5037793;28;20485;-71
2021/04/26 14:11:35;;;;;;;4.50;1.53;;;;;;;;;;5039545;28;20775;-70
2021/04/26 14:14:02;;;;;;;3.67;1.30;;;;;;;;;;5040204;28;20454;-72
2021/04/26 14:16:34;;;;;;;3.57;1.67;;;;;;;;;;5037973;28;21339;-70
2021/04/26 14:19:03;;;;;;;3.10;1.20;;;;;;;;;;5039488;28;20545;-71
2021/04/26 14:21:31;;;;;;;3.50;1.10;;;;;;;;;;5038712;28;20494;-70
2021/04/26 14:23:58;;;;;;;5.63;0.93;;;;;;;;;;5037438;28;20468;-70
2021/04/26 14:26:27;;;;;;;3.40;1.20;;;;;;;;;;5036908;28;20842;-70
2021/04/26 14:28:56;;;;;;;2.40;1.00;;;;;;;;;;5025392;28;20468;-71
2021/04/26 14:31:32;;;;;;;3.10;0.80;;;;;;;;;;5018771;28;20529;-71
2021/04/26 14:34:00;;;;;;;2.83;1.10;;;;;;;;;;5021024;28;20550;-70
2021/04/26 14:36:32;;;;;;;2.80;1.40;;;;;;;;;;5018346;28;20768;-69
2021/04/26 14:39:03;;;;;;;3.17;1.00;;;;;;;;;;5018008;28;20460;-70
2021/04/26 14:41:31;;;;;;;4.10;1.27;;;;;;;;;;5019515;28;20479;-70
2021/04/26 14:43:59;;;;;;;2.40;0.90;;;;;;;;;;5030637;28;21145;-71
2021/04/26 14:46:27;;;;;;;6.77;1.30;;;;;;;;;;5038626;28;20549;-70
2021/04/26 14:48:54;;;;;;;6.90;3.43;;;;;;;;;;5037161;28;20877;-70
2021/04/26 14:51:27;;;;;;;3.37;1.13;;;;;;;;;;5039249;28;20550;-70
2021/04/26 14:53:56;;;;;;;2.63;1.00;;;;;;;;;;5038514;28;20485;-70
2021/04/26 14:56:25;;;;;;;2.50;1.00;;;;;;;;;;5037226;28;21037;-70
2021/04/26 14:58:55;;;;;;;3.80;1.30;;;;;;;;;;5038498;28;20462;-70
2021/04/26 15:01:23;;;;;;;16.03;1.90;;;;;;;;;;5037035;28;20493;-70
2021/04/26 15:03:51;;;;;;;2.53;1.00;;;;;;;;;;5036758;28;20475;-70